Time;durP1;ratioP1;P1;durP2;ratioP2;P2;SDS_P1;SDS_P2;PMS_P1;PMS_P2;Temp;Humidity;BMP_temperature;BMP_pressure;BME280_temperature;BME280_humidity;BME280_pressure;Samples;Min_cycle;Max_cycle;Signal;HPM_P1;HPM_P2
2022/06/19 00:00:10;;;;;;;1.75;1.50;;;;;;;19.43;48.70;100160.31;7658238;32;37239;-75
2022/06/19 00:04:27;;;;;;;4.43;1.55;;;;;;;19.91;47.41;100150.31;7658091;32;39419;-74
2022/06/19 00:08:48;;;;;;;4.47;1.85;;;;;;;19.32;49.01;100142.41;7644713;32;39983;-74
2022/06/19 00:13:04;;;;;;;2.20;1.48;;;;;;;19.75;47.54;100141.69;7658037;32;37935;-74
2022/06/19 00:17:20;;;;;;;1.90;1.58;;;;;;;19.49;48.28;100139.69;7657508;32;37000;-76
2022/06/19 00:21:37;;;;;;;2.40;1.65;;;;;;;19.34;48.63;100145.66;7657809;32;40143;-74
2022/06/19 00:25:53;;;;;;;2.58;1.85;;;;;;;19.48;48.04;100148.28;7657776;32;39947;-75
2022/06/19 00:30:11;;;;;;;5.00;1.70;;;;;;;19.75;47.64;100133.38;7657626;32;37924;-74
2022/06/19 00:34:27;;;;;;;4.20;1.70;;;;;;;19.44;48.39;100131.53;7657742;32;36214;-73
2022/06/19 00:38:43;;;;;;;2.03;1.33;;;;;;;19.32;47.59;100128.59;7657583;32;39504;-75
2022/06/19 00:43:00;;;;;;;5.05;2.05;;;;;;;19.21;48.57;100117.00;7656315;32;40825;-75
2022/06/19 00:47:32;;;;;;;2.12;1.55;;;;;;;19.10;48.43;100122.03;7657140;32;38568;-74
2022/06/19 00:51:54;;;;;;;6.57;1.70;;;;;;;18.76;48.68;100131.81;7911928;27;36730;-74
2022/06/19 00:56:18;;;;;;;2.43;1.87;;;;;;;18.86;49.73;100132.69;7710355;32;39991;-74
2022/06/19 01:00:34;;;;;;;;;;;;;;;18.82;50.46;100131.66;7697419;32;40721;-74
2022/06/19 01:04:52;;;;;;;2.40;1.50;;;;;;;19.34;49.38;100126.31;7710011;32;38961;-75
2022/06/19 01:09:08;;;;;;;3.37;1.40;;;;;;;18.97;50.12;100128.47;7696386;32;38097;-74
2022/06/19 01:13:29;;;;;;;2.10;1.70;;;;;;;18.87;49.71;100135.13;7709936;32;39529;-73
2022/06/19 01:17:48;;;;;;;3.33;1.40;;;;;;;18.79;50.77;100143.34;7709311;32;39991;-74
2022/06/19 01:22:23;;;;;;;2.97;1.77;;;;;;;18.52;51.92;100132.19;7709480;32;37984;-74
2022/06/19 01:26:43;;;;;;;2.97;1.80;;;;;;;18.54;52.22;100121.63;7709542;32;36748;-74
2022/06/19 01:31:00;;;;;;;2.95;1.75;;;;;;;18.70;51.47;100124.78;7709440;32;39162;-74
2022/06/19 01:35:18;;;;;;;1.70;1.42;;;;;;;18.85;49.99;100114.47;7709189;32;39889;-73
2022/06/19 01:40:03;;;;;;;2.50;1.55;;;;;;;18.76;49.52;100118.00;7695636;32;37849;-74
2022/06/19 01:44:19;;;;;;;3.08;1.58;;;;;;;18.79;49.82;100119.28;7703925;32;37456;-73
2022/06/19 01:48:37;;;;;;;2.33;1.50;;;;;;;18.72;50.76;100122.53;7708439;32;39443;-74
2022/06/19 01:53:03;;;;;;;2.70;1.70;;;;;;;18.99;49.40;100109.66;7696691;32;39706;-74
2022/06/19 01:57:19;;;;;;;3.37;1.70;;;;;;;18.75;51.15;100115.56;7699964;32;38632;-74
2022/06/19 02:01:40;;;;;;;3.15;1.92;;;;;;;18.70;51.71;100110.97;7712708;32;37169;-74
2022/06/19 02:05:57;;;;;;;2.80;1.77;;;;;;;18.26;52.85;100114.66;7712318;32;40090;-75
2022/06/19 02:10:13;;;;;;;3.55;1.70;;;;;;;18.78;50.77;100103.84;7698613;32;39656;-74
2022/06/19 02:14:30;;;;;;;2.22;1.50;;;;;;;18.54;50.81;100101.47;7712461;32;38844;-74
2022/06/19 02:18:50;;;;;;;3.33;1.90;;;;;;;18.40;52.18;100115.37;7712487;32;37332;-74
2022/06/19 02:23:07;;;;;;;3.37;2.22;;;;;;;18.46;52.35;100110.56;7712407;32;39301;-74
2022/06/19 02:27:25;;;;;;;2.55;1.60;;;;;;;18.30;53.43;100110.12;7698468;32;40838;-74
2022/06/19 02:31:44;;;;;;;4.62;2.00;;;;;;;18.18;52.91;100108.75;7698785;32;38787;-75
2022/06/19 02:36:01;;;;;;;4.10;1.92;;;;;;;18.10;52.44;100097.69;7712270;32;37255;-74
2022/06/19 02:40:34;;;;;;;2.60;1.80;;;;;;;18.43;51.61;100094.63;7712225;32;40141;-73
2022/06/19 02:44:52;;;;;;;3.80;1.77;;;;;;;18.39;51.98;100095.25;7699354;32;40269;-74
2022/06/19 02:49:08;;;;;;;2.12;1.75;;;;;;;18.42;51.28;100085.53;7711462;32;38101;-74
2022/06/19 02:53:25;;;;;;;3.30;2.00;;;;;;;18.12;52.39;100085.19;7712080;32;37866;-74
2022/06/19 02:57:42;;;;;;;2.92;1.70;;;;;;;18.12;52.56;100087.13;7712055;32;39457;-74
2022/06/19 03:01:58;;;;;;;2.58;1.90;;;;;;;18.15;52.04;100075.47;7711953;32;39939;-73
2022/06/19 03:06:14;;;;;;;5.60;2.42;;;;;;;18.21;51.74;100074.19;7711098;32;37912;-73
2022/06/19 03:10:30;;;;;;;6.22;1.85;;;;;;;18.42;50.93;100073.66;7711613;32;37727;-74
2022/06/19 03:14:47;;;;;;;2.87;1.85;;;;;;;18.20;51.59;100075.34;7698095;32;39350;-74
2022/06/19 03:19:04;;;;;;;2.45;1.62;;;;;;;18.14;52.28;100069.16;7711751;32;39690;-74
2022/06/19 03:23:21;;;;;;;3.45;1.77;;;;;;;18.30;51.76;100071.47;7711606;32;38110;-74
2022/06/19 03:27:37;;;;;;;3.12;1.90;;;;;;;18.10;52.53;100067.34;7711694;32;37103;-74
2022/06/19 03:31:53;;;;;;;2.58;1.80;;;;;;;18.12;52.92;100065.88;7711735;32;39087;-75
2022/06/19 03:36:09;;;;;;;3.00;2.20;;;;;;;18.20;52.98;100067.06;7711564;32;40617;-74
2022/06/19 03:40:25;;;;;;;2.72;1.80;;;;;;;18.27;54.15;100067.41;7711190;32;37598;-75
2022/06/19 03:44:41;;;;;;;4.00;1.98;;;;;;;18.19;54.28;100065.41;7711419;32;36859;-74
2022/06/19 03:48:57;;;;;;;3.03;1.92;;;;;;;18.04;54.89;100079.62;7711435;32;39187;-74
2022/06/19 03:53:14;;;;;;;2.45;1.90;;;;;;;18.28;53.84;100071.81;7711184;32;39967;-74
2022/06/19 03:57:30;;;;;;;2.95;1.62;;;;;;;18.08;54.67;100072.34;7711207;32;38773;-74
2022/06/19 04:01:46;;;;;;;2.60;1.70;;;;;;;18.23;53.93;100060.91;7711282;32;37203;-74
2022/06/19 04:06:02;;;;;;;2.28;1.83;;;;;;;18.29;53.37;100065.16;7711130;32;39411;-74
2022/06/19 04:10:19;;;;;;;1.80;1.70;;;;;;;18.23;53.75;100060.91;7710847;32;40068;-73
2022/06/19 04:14:41;;;;;;;3.05;2.00;;;;;;;18.49;53.14;100058.28;7710536;32;38854;-74
2022/06/19 04:18:59;;;;;;;2.87;1.75;;;;;;;18.67;52.71;100052.81;7710300;32;37596;-74
2022/06/19 04:23:15;;;;;;;6.07;1.87;;;;;;;18.56;54.08;100046.78;7710480;32;39614;-74
2022/06/19 04:27:37;;;;;;;6.12;2.20;;;;;;;18.74;53.55;100059.50;7710758;32;39623;-74
2022/06/19 04:31:55;;;;;;;2.87;2.05;;;;;;;18.82;53.72;100059.88;7710815;32;38008;-73
2022/06/19 04:36:15;;;;;;;5.40;2.30;;;;;;;18.80;54.01;100051.06;7710863;32;37816;-74
2022/06/19 04:40:32;;;;;;;6.72;1.98;;;;;;;18.86;53.95;100058.91;7710305;32;39214;-73
2022/06/19 04:44:48;;;;;;;4.50;2.20;;;;;;;18.96;54.22;100074.37;7710401;32;39856;-74
2022/06/19 04:49:04;;;;;;;4.80;2.20;;;;;;;18.96;54.63;100071.63;7710203;32;38043;-74
2022/06/19 04:53:26;;;;;;;3.00;2.00;;;;;;;19.31;53.85;100071.66;7710104;32;37901;-74
2022/06/19 04:57:43;;;;;;;6.15;2.25;;;;;;;19.41;53.50;100070.56;7710181;32;39397;-74
2022/06/19 05:01:59;;;;;;;3.67;2.08;;;;;;;19.41;53.72;100071.34;7710025;32;40077;-78
2022/06/19 05:06:15;;;;;;;3.00;2.10;;;;;;;19.34;53.41;100071.03;7709770;32;38879;-74
2022/06/19 05:10:31;;;;;;;4.90;2.25;;;;;;;19.41;52.88;100074.13;7709517;32;37364;-74
2022/06/19 05:14:47;;;;;;;4.75;2.50;;;;;;;19.43;53.91;100071.84;7709766;32;39418;-75
2022/06/19 05:19:04;;;;;;;3.15;2.17;;;;;;;19.82;52.70;100081.16;7709622;32;40106;-75
2022/06/19 05:23:20;;;;;;;4.00;2.35;;;;;;;20.05;52.17;100072.66;7708685;32;38820;-74
2022/06/19 05:27:38;;;;;;;7.28;2.40;;;;;;;19.99;53.08;100073.94;7710408;32;38083;-75
2022/06/19 05:31:53;;;;;;;5.70;2.50;;;;;;;20.21;53.35;100079.31;7712970;32;39279;-75
2022/06/19 05:36:10;;;;;;;4.10;2.33;;;;;;;20.63;52.36;100075.94;7712320;32;39929;-74
2022/06/19 05:40:26;;;;;;;4.18;2.53;;;;;;;20.65;52.55;100078.38;7712746;32;38762;-72
2022/06/19 05:44:42;;;;;;;7.22;2.50;;;;;;;20.89;51.88;100077.75;7712686;32;37840;-73
2022/06/19 05:48:58;;;;;;;3.15;2.22;;;;;;;20.95;52.05;100082.75;7712805;32;40066;-73
2022/06/19 05:53:14;;;;;;;3.50;2.58;;;;;;;21.40;50.57;100081.31;7709628;32;40072;-73
2022/06/19 05:57:30;;;;;;;4.00;1.80;;;;;;;21.56;50.32;100076.03;7712533;32;38785;-73
2022/06/19 06:01:46;;;;;;;3.83;2.10;;;;;;;21.78;50.17;100072.06;7712376;32;37947;-73
2022/06/19 06:06:05;;;;;;;2.92;2.20;;;;;;;21.81;50.60;100068.63;7712192;32;40117;-76
2022/06/19 06:10:21;;;;;;;3.55;2.15;;;;;;;22.08;50.02;100071.97;7712595;32;39041;-75
2022/06/19 06:14:37;;;;;;;3.15;2.08;;;;;;;22.42;49.55;100075.50;7712418;32;37623;-76
2022/06/19 06:18:53;;;;;;;3.55;2.10;;;;;;;22.86;48.72;100061.88;7712401;32;37125;-80
2022/06/19 06:23:09;;;;;;;3.70;1.77;;;;;;;22.99;49.04;100059.91;7712287;32;39072;-75
2022/06/19 06:27:26;;;;;;;5.37;2.30;;;;;;;23.20;48.86;100057.03;7712368;32;39922;-76
2022/06/19 06:31:42;;;;;;;5.10;2.22;;;;;;;23.28;48.81;100050.50;7712147;32;38922;-76
2022/06/19 06:35:58;;;;;;;2.22;1.80;;;;;;;23.63;47.83;100055.50;7711873;32;36982;-75
2022/06/19 06:40:14;;;;;;;3.83;2.15;;;;;;;23.62;47.74;100059.44;7711088;32;40017;-75
2022/06/19 06:44:30;;;;;;;4.78;1.95;;;;;;;23.97;47.66;100065.25;7711986;32;39993;-75
2022/06/19 06:48:47;;;;;;;4.45;2.30;;;;;;;23.63;47.78;100061.88;7711914;32;38159;-75
2022/06/19 06:53:04;;;;;;;3.12;2.22;;;;;;;23.89;47.15;100071.78;7711629;32;37001;-75
2022/06/19 06:57:20;;;;;;;3.30;2.10;;;;;;;24.10;46.20;100070.75;7711963;32;39526;-74
2022/06/19 07:01:37;;;;;;;3.15;2.10;;;;;;;24.30;46.86;100072.50;7711642;32;39931;-75
2022/06/19 07:05:53;;;;;;;5.43;2.20;;;;;;;24.66;46.42;100065.03;7711784;32;37747;-77
2022/06/19 07:10:11;;;;;;;7.00;3.10;;;;;;;24.69;46.85;100071.88;7711034;32;37637;-75
2022/06/19 07:14:31;;;;;;;2.97;2.10;;;;;;;24.81;47.47;100068.19;7708057;32;39288;-75
2022/06/19 07:18:47;;;;;;;3.50;2.33;;;;;;;25.00;47.87;100065.44;7711730;32;40568;-74
2022/06/19 07:23:04;;;;;;;4.00;2.25;;;;;;;25.02;47.74;100070.66;7711622;32;37890;-75
2022/06/19 07:27:20;;;;;;;6.10;2.55;;;;;;;25.26;47.57;100059.28;7711539;32;37179;-75
2022/06/19 07:31:37;;;;;;;4.28;2.10;;;;;;;25.55;46.38;100053.53;7711505;32;39157;-76
2022/06/19 07:35:53;;;;;;;4.20;2.22;;;;;;;26.00;45.05;100052.06;7710913;32;40162;-75
2022/06/19 07:40:13;;;;;;;2.37;1.92;;;;;;;25.93;44.47;100043.50;7711416;32;38562;-75
2022/06/19 07:44:29;;;;;;;3.12;2.00;;;;;;;26.43;40.38;100041.63;7711409;32;36956;-75
2022/06/19 07:53:20;;;;;;;4.75;1.85;;;;;;;26.51;38.27;100034.16;7711053;32;40774;-73
2022/06/19 07:57:37;;;;;;;6.65;2.30;;;;;;;26.92;33.62;100032.47;7710961;32;38024;-72
2022/06/19 08:01:53;;;;;;;4.12;1.62;;;;;;;27.27;33.33;100019.34;7711109;32;37207;-71
2022/06/19 08:06:25;;;;;;;2.72;1.83;;;;;;;27.30;32.91;100024.19;7710854;32;39272;-73
2022/06/19 08:10:43;;;;;;;4.15;1.80;;;;;;;27.63;32.47;100014.22;7710974;32;40552;-74
2022/06/19 08:15:02;;;;;;;3.62;1.80;;;;;;;27.56;30.88;100012.12;7710109;32;37795;-75
2022/06/19 08:19:19;;;;;;;4.65;1.70;;;;;;;27.79;29.92;100005.59;7710554;32;37323;-76
2022/06/19 08:23:36;;;;;;;2.72;2.00;;;;;;;27.91;28.80;99999.72;7710699;32;39277;-75
2022/06/19 08:27:53;;;;;;;2.28;1.83;;;;;;;27.97;28.90;100005.81;7710544;32;39994;-72
2022/06/19 08:32:09;;;;;;;4.32;1.58;;;;;;;28.06;29.95;100009.91;7710394;32;38041;-74
2022/06/19 08:36:26;;;;;;;3.58;1.70;;;;;;;28.20;28.44;100003.63;7696812;32;37015;-74
2022/06/19 08:41:00;;;;;;;1.62;1.35;;;;;;;28.00;28.63;100005.84;7710074;32;39395;-72
2022/06/19 08:45:34;;;;;;;1.33;1.23;;;;;;;27.40;26.06;100000.34;7696985;32;40717;-72
2022/06/19 08:49:57;;;;;;;3.05;1.45;;;;;;;27.29;28.87;100006.63;7697401;32;38059;-73
2022/06/19 08:54:22;;;;;;;;;;;;;;;27.86;29.34;100002.87;7710584;32;36738;-75
2022/06/19 08:59:08;;;;;;;3.55;1.70;;;;;;;27.90;28.75;100001.69;7710330;32;39603;-74
2022/06/19 09:05:36;;;;;;;9.82;2.00;;;;;;;28.24;27.78;100003.66;7711591;32;40870;-73
2022/06/19 09:08:22;;;;;;;5.32;1.80;;;;;;;28.42;26.37;99987.81;7713098;32;38845;-74
2022/06/19 09:13:23;;;;;;;9.13;2.23;;;;;;;28.45;26.95;99981.41;7700392;32;37012;-76
2022/06/19 09:18:01;;;;;;;4.60;2.00;;;;;;;28.55;25.96;99979.13;7710410;32;39022;-76
2022/06/19 09:22:27;;;;;;;6.30;2.33;;;;;;;28.22;26.32;99978.81;7713117;32;38981;-76
2022/06/19 09:26:59;;;;;;;1.30;1.20;;;;;;;28.74;26.25;99981.62;7713049;32;37989;-75
2022/06/19 09:31:29;;;;;;;2.17;1.40;;;;;;;28.62;25.61;99967.94;7700152;32;37132;-75
2022/06/19 09:36:01;;;;;;;2.78;1.50;;;;;;;28.88;25.58;99980.13;7712847;32;39854;-75
2022/06/19 09:40:23;;;;;;;3.07;1.40;;;;;;;29.18;24.81;99972.28;7712725;32;39746;-75
2022/06/19 09:45:07;;;;;;;2.58;1.50;;;;;;;28.68;24.91;99980.38;7700306;32;38098;-74
2022/06/19 09:49:37;;;;;;;2.78;1.90;;;;;;;28.90;25.96;99964.50;7712615;32;36183;-75
2022/06/19 09:54:02;;;;;;;4.70;1.80;;;;;;;29.04;25.53;99958.16;7712952;32;39913;-72
2022/06/19 09:58:33;;;;;;;4.85;1.85;;;;;;;29.01;27.83;99953.31;7712938;32;40833;-71
2022/06/19 10:03:21;;;;;;;2.67;1.67;;;;;;;29.29;26.13;99943.47;7712612;32;38219;-73
2022/06/19 10:07:43;;;;;;;10.68;2.00;;;;;;;29.27;26.63;99952.28;7700176;32;36717;-74
2022/06/19 10:12:02;;;;;;;5.40;1.87;;;;;;;29.91;27.01;99937.59;7699606;32;39128;-75
2022/06/19 10:16:31;;;;;;;3.70;1.95;;;;;;;30.12;27.04;99933.19;7712497;32;39987;-74
2022/06/19 10:20:56;;;;;;;1.87;1.52;;;;;;;30.20;25.85;99939.59;7712442;32;38092;-74
2022/06/19 10:25:40;;;;;;;4.90;2.42;;;;;;;29.93;25.13;99931.56;7698714;32;36029;-74
2022/06/19 10:30:15;;;;;;;5.97;2.10;;;;;;;30.44;25.89;99932.37;7712357;32;39374;-79
2022/06/19 10:34:52;;;;;;;5.75;2.28;;;;;;;30.25;24.25;99923.16;7712063;32;40201;-79
2022/06/19 10:39:30;;;;;;;6.95;2.08;;;;;;;30.69;24.59;99904.22;7712169;32;37958;-78
2022/06/19 10:43:59;;;;;;;5.03;2.20;;;;;;;30.56;25.83;99915.06;7712173;32;37822;-76
2022/06/19 10:48:20;;;;;;;6.32;1.90;;;;;;;30.34;25.59;99912.28;7699088;32;39333;-76
2022/06/19 10:52:44;;;;;;;2.50;1.95;;;;;;;30.65;25.83;99904.22;7711666;32;40075;-76
2022/06/19 10:57:22;;;;;;;2.03;1.62;;;;;;;30.79;24.68;99897.75;7711905;32;38718;-79
2022/06/19 11:06:33;;;;;;;3.95;1.70;;;;;;;30.94;23.23;99880.81;7701033;32;39405;-73
2022/06/19 11:10:54;;;;;;;2.58;1.62;;;;;;;31.02;23.57;99880.38;7711911;32;40143;-71
2022/06/19 11:15:31;;;;;;;3.22;2.25;;;;;;;31.22;23.45;99874.25;7698240;32;37863;-76
2022/06/19 11:19:49;;;;;;;6.07;1.70;;;;;;;31.48;22.34;99872.88;7700465;32;37264;-70
2022/06/19 11:24:06;;;;;;;2.17;1.50;;;;;;;31.88;21.54;99864.16;7711292;32;39278;-72
2022/06/19 11:28:36;;;;;;;3.12;1.25;;;;;;;31.35;22.59;99866.13;7697696;32;40757;-71
2022/06/19 11:32:53;;;;;;;5.03;1.60;;;;;;;31.48;22.13;99856.00;7698565;32;38735;-71
2022/06/19 11:37:37;;;;;;;6.50;1.92;;;;;;;32.26;22.39;99856.56;7697766;32;37555;-69
2022/06/19 11:41:53;;;;;;;3.00;1.67;;;;;;;31.99;21.95;99857.22;7711355;32;39309;-68
2022/06/19 11:46:26;;;;;;;4.97;1.62;;;;;;;32.32;21.55;99854.09;7710996;32;39929;-76
2022/06/19 11:50:49;;;;;;;3.15;1.40;;;;;;;31.80;21.81;99858.56;7710813;32;37915;-79
2022/06/19 11:55:27;;;;;;;2.45;1.48;;;;;;;32.04;21.88;99853.12;7710774;32;37199;-78
2022/06/19 11:59:46;;;;;;;1.92;1.50;;;;;;;31.96;23.08;99846.78;7692192;32;39817;-77
2022/06/19 12:04:04;;;;;;;3.22;1.70;;;;;;;31.50;21.71;99828.22;7710608;32;40427;-78
2022/06/19 12:08:29;;;;;;;3.67;1.50;;;;;;;32.34;23.38;99820.63;7697585;32;36861;-80
2022/06/19 12:12:57;;;;;;;6.53;1.80;;;;;;;32.33;21.53;99816.22;7708845;32;37352;-80
2022/06/19 12:17:19;;;;;;;4.72;1.45;;;;;;;32.76;21.49;99812.91;7671147;32;39839;-80
2022/06/19 12:21:46;;;;;;;3.53;1.87;;;;;;;32.80;20.81;99805.16;7710130;32;40857;-79
2022/06/19 12:26:11;;;;;;;4.60;1.62;;;;;;;33.18;22.21;99802.25;7697742;32;37915;-81
2022/06/19 12:30:33;;;;;;;5.25;1.60;;;;;;;32.82;21.27;99791.44;7697758;32;36956;-80
2022/06/19 12:34:50;;;;;;;;;;;;;;;33.17;21.04;99786.53;7710941;32;39124;-81
2022/06/19 12:39:17;;;;;;;3.37;1.40;;;;;;;33.13;20.40;99789.38;7709305;32;41096;-80
2022/06/19 12:43:55;;;;;;;2.03;1.40;;;;;;;33.02;21.62;99771.00;7697447;32;38005;-81
2022/06/19 12:48:40;;;;;;;1.37;1.27;;;;;;;33.13;22.00;99785.75;7710340;32;37429;-81
2022/06/19 12:53:20;;;;;;;2.03;1.67;;;;;;;33.15;20.21;99782.53;7709908;32;39373;-79
2022/06/19 12:57:43;;;;;;;3.55;1.33;;;;;;;32.91;20.42;99763.50;7710086;32;40786;-80
2022/06/19 13:02:29;;;;;;;3.87;1.80;;;;;;;33.73;19.64;99773.94;7710083;32;38001;-81
2022/06/19 13:07:20;;;;;;;2.97;1.50;;;;;;;33.27;19.88;99762.16;7709922;32;36630;-80
2022/06/19 13:11:53;;;;;;;1.85;1.20;;;;;;;33.52;19.83;99753.28;7698020;32;39447;-80
2022/06/19 13:16:24;;;;;;;6.32;1.80;;;;;;;33.49;19.68;99754.94;7702257;32;237384;-81
2022/06/19 13:21:14;;;;;;;4.68;1.40;;;;;;;33.49;19.11;99743.63;7709529;32;38742;-80
2022/06/19 13:25:46;;;;;;;2.90;1.37;;;;;;;33.88;19.84;99741.37;7697532;32;37811;-80
2022/06/19 13:30:19;;;;;;;2.70;1.45;;;;;;;34.15;18.63;99731.94;7696323;32;40095;-80
2022/06/19 13:34:40;;;;;;;4.75;1.55;;;;;;;34.01;18.12;99725.38;7709221;32;39568;-80
2022/06/19 13:39:16;;;;;;;3.30;1.50;;;;;;;34.32;18.98;99719.47;7695806;32;37753;-76
2022/06/19 13:43:47;;;;;;;3.42;1.35;;;;;;;34.55;17.86;99717.81;7708692;32;37952;-80
2022/06/19 13:48:26;;;;;;;2.20;1.35;;;;;;;34.57;18.42;99710.47;7697029;32;39169;-78
2022/06/19 13:53:06;;;;;;;2.42;1.50;;;;;;;34.18;18.11;99708.44;7700112;32;40711;-79
2022/06/19 13:57:36;;;;;;;8.40;1.77;;;;;;;34.11;19.13;99697.28;7689364;32;38647;-81
2022/06/19 14:02:04;;;;;;;3.05;1.40;;;;;;;33.81;18.85;99690.63;7673319;32;37073;-79
2022/06/19 14:06:34;;;;;;;4.35;1.50;;;;;;;33.80;18.39;99689.81;7675525;32;39333;-79
2022/06/19 14:11:19;;;;;;;1.83;1.20;;;;;;;34.30;19.44;99676.69;7678254;32;40097;-80
2022/06/19 14:16:13;;;;;;;2.25;1.50;;;;;;;33.75;18.27;99675.38;7659663;32;38221;-80
2022/06/19 14:20:53;;;;;;;4.12;1.45;;;;;;;34.09;18.60;99665.81;7659429;32;38087;-81
2022/06/19 14:25:47;;;;;;;4.82;1.67;;;;;;;34.42;18.16;99656.22;7655615;32;39837;-79
2022/06/19 14:30:11;;;;;;;3.62;1.52;;;;;;;34.88;19.43;99642.25;7685403;32;40820;-78
2022/06/19 14:34:49;;;;;;;4.05;1.80;;;;;;;34.64;17.93;99638.75;7664053;32;37625;-76
2022/06/19 14:39:23;;;;;;;2.35;1.42;;;;;;;34.89;17.45;99637.38;7675547;32;37652;-79
2022/06/19 14:43:50;;;;;;;1.20;1.08;;;;;;;34.82;17.87;99632.66;7670224;32;39376;-78
2022/06/19 14:48:17;;;;;;;1.73;1.12;;;;;;;34.52;17.17;99630.94;7652292;32;39995;-82
2022/06/19 14:52:50;;;;;;;2.00;1.20;;;;;;;34.50;17.64;99637.06;7680520;32;37826;-78
2022/06/19 14:57:41;;;;;;;1.27;1.17;;;;;;;34.69;17.85;99629.72;7711122;32;37176;-78
2022/06/19 15:01:58;;;;;;;5.68;1.17;;;;;;;35.37;17.34;99610.25;7710731;32;39974;-76
2022/06/19 15:06:26;;;;;;;1.48;1.27;;;;;;;34.95;18.09;99612.94;7710825;32;40742;-77
2022/06/19 15:10:55;;;;;;;7.12;1.67;;;;;;;35.41;17.96;99622.28;7711679;32;37775;-77
2022/06/19 15:15:24;;;;;;;3.17;1.30;;;;;;;35.08;17.86;99607.34;7684980;32;36902;-76
2022/06/19 15:19:42;;;;;;;2.12;1.20;;;;;;;35.08;17.31;99599.66;7671906;32;39292;-77
2022/06/19 15:24:02;;;;;;;0.98;0.95;;;;;;;34.93;17.32;99587.13;7677188;32;42351;-76
2022/06/19 15:28:46;;;;;;;13.35;1.70;;;;;;;34.95;17.12;99581.81;7697839;32;37542;-76
2022/06/19 15:33:37;;;;;;;2.60;1.25;;;;;;;34.80;17.10;99570.03;7688198;32;37800;-76
2022/06/19 15:38:11;;;;;;;1.75;1.20;;;;;;;35.15;17.22;99568.31;7699689;32;39126;-77
2022/06/19 15:42:29;;;;;;;1.37;1.25;;;;;;;34.83;17.93;99559.87;7697287;32;39877;-77
2022/06/19 15:47:03;;;;;;;1.40;1.10;;;;;;;34.89;18.07;99556.06;7710723;32;37574;-77
2022/06/19 15:51:34;;;;;;;2.25;1.30;;;;;;;35.13;17.23;99562.31;7711002;32;37919;-77
2022/06/19 15:56:06;;;;;;;3.80;1.20;;;;;;;34.82;17.90;99541.28;7697324;32;39341;-76
2022/06/19 16:00:40;;;;;;;1.37;1.00;;;;;;;34.55;17.33;99539.53;7697978;32;40525;-76
2022/06/19 16:04:59;;;;;;;1.33;1.23;;;;;;;34.10;17.83;99540.12;7697464;32;37826;-76
2022/06/19 16:09:17;;;;;;;4.82;1.42;;;;;;;33.84;17.90;99539.91;7710726;32;36131;-80
2022/06/19 16:13:36;;;;;;;1.37;1.10;;;;;;;33.06;18.74;99545.84;7710847;32;39292;-75
2022/06/19 16:17:59;;;;;;;2.42;1.00;;;;;;;33.64;18.36;99537.88;7697371;32;40090;-74
2022/06/19 16:22:17;;;;;;;4.53;1.42;;;;;;;32.89;18.53;99544.94;7710822;32;39179;-73
2022/06/19 16:26:37;;;;;;;4.07;1.20;;;;;;;33.18;19.18;99542.44;7710756;32;37840;-74
2022/06/19 16:31:22;;;;;;;2.12;1.10;;;;;;;33.21;18.78;99538.75;7688309;32;39092;-75
2022/06/19 16:45:17;;;;;;;5.03;1.27;;;;;;;32.76;19.25;99541.97;7697952;32;37445;-74
2022/06/19 16:49:35;;;;;;;2.62;1.30;;;;;;;32.78;19.14;99535.87;7710193;32;40433;-74
2022/06/19 16:53:56;;;;;;;2.80;1.42;;;;;;;32.89;18.66;99531.66;7710215;32;39738;-72
2022/06/19 16:58:22;;;;;;;3.70;1.50;;;;;;;32.90;19.44;99521.16;7696580;32;38277;-73
2022/06/19 17:02:53;;;;;;;3.60;1.30;;;;;;;32.91;19.40;99519.94;7696855;32;37080;-71
2022/06/19 17:07:10;;;;;;;6.62;1.40;;;;;;;32.66;19.93;99512.69;7709994;32;39015;-73
2022/06/19 17:11:38;;;;;;;2.28;1.17;;;;;;;32.79;19.85;99510.06;7709779;32;40965;-74
2022/06/19 17:15:58;;;;;;;2.37;1.20;;;;;;;32.62;20.10;99511.97;7696382;32;37929;-74
2022/06/19 17:20:17;;;;;;;1.65;1.12;;;;;;;32.67;20.15;99514.28;7696299;32;37334;-76
2022/06/19 17:24:47;;;;;;;4.07;1.33;;;;;;;32.31;20.70;99502.78;7711530;32;39271;-75
2022/06/19 17:29:04;;;;;;;4.68;1.33;;;;;;;32.54;21.17;99518.91;7712309;32;40823;-75
2022/06/19 17:33:27;;;;;;;2.85;1.10;;;;;;;32.45;21.65;99507.41;7712578;32;37871;-76
2022/06/19 17:37:45;;;;;;;2.83;1.40;;;;;;;32.60;20.27;99513.56;7713109;32;37082;-66
2022/06/19 17:42:20;;;;;;;3.25;1.20;;;;;;;32.46;21.49;99509.78;7712991;32;39406;-66
2022/06/19 17:46:37;;;;;;;3.60;1.30;;;;;;;31.77;21.61;99503.53;7699543;32;40589;-64
2022/06/19 17:50:58;;;;;;;3.03;1.30;;;;;;;31.83;22.57;99502.62;7712531;32;37938;-77
2022/06/19 17:55:32;;;;;;;3.95;1.40;;;;;;;31.83;22.40;99501.84;7712549;32;36998;-77
2022/06/19 17:59:58;;;;;;;1.77;1.45;;;;;;;31.63;22.73;99494.06;7712650;32;39059;-76
2022/06/19 18:04:18;;;;;;;2.55;1.45;;;;;;;31.41;23.20;99510.41;7712624;32;40031;-77
2022/06/19 18:08:42;;;;;;;1.95;1.30;;;;;;;31.35;22.93;99506.44;7712147;32;37841;-77
2022/06/19 18:13:12;;;;;;;3.85;1.27;;;;;;;31.42;23.18;99514.81;7699706;32;37207;-77
2022/06/19 18:22:04;;;;;;;6.82;1.58;;;;;;;31.13;23.72;99505.87;7712365;32;39724;-78
2022/06/19 18:26:40;;;;;;;6.75;1.60;;;;;;;30.85;24.62;99513.37;7711929;32;37886;-77
2022/06/19 18:30:57;;;;;;;4.05;1.60;;;;;;;30.79;24.06;99519.91;7699635;32;37052;-76
2022/06/19 18:35:17;;;;;;;3.05;1.67;;;;;;;30.73;23.59;99515.94;7711195;32;39336;-77
2022/06/19 18:39:37;;;;;;;3.73;1.60;;;;;;;30.40;25.31;99516.19;7699016;32;39946;-77
2022/06/19 18:43:57;;;;;;;5.12;1.48;;;;;;;30.31;25.26;99513.81;7711877;32;38642;-77
2022/06/19 18:48:15;;;;;;;3.87;1.50;;;;;;;30.23;24.57;99517.91;7711974;32;37247;-77
2022/06/19 18:52:34;;;;;;;1.60;1.48;;;;;;;30.00;25.71;99521.28;7711410;32;39245;-77
2022/06/19 18:56:53;;;;;;;2.87;1.37;;;;;;;29.66;26.55;99518.22;7711887;32;40927;-78
2022/06/19 19:01:11;;;;;;;3.58;1.73;;;;;;;29.69;26.63;99511.78;7711847;32;37690;-80
2022/06/19 19:05:27;;;;;;;3.62;1.70;;;;;;;29.25;28.33;99515.97;7698160;32;37886;-80
2022/06/19 19:09:52;;;;;;;5.37;1.70;;;;;;;29.01;28.97;99524.00;7711748;32;39080;-76
2022/06/19 19:14:09;;;;;;;2.95;1.58;;;;;;;28.79;29.70;99528.87;7711755;32;40722;-76
2022/06/19 19:18:25;;;;;;;4.30;1.67;;;;;;;28.70;29.76;99520.84;7697923;32;37857;-75
2022/06/19 19:22:41;;;;;;;4.70;1.70;;;;;;;28.18;31.69;99531.59;7711431;32;37095;-73
2022/06/19 19:26:57;;;;;;;5.18;1.83;;;;;;;28.13;31.54;99544.03;7711432;32;39214;-73
2022/06/19 19:31:17;;;;;;;2.80;1.55;;;;;;;27.92;32.05;99536.34;7705042;32;39564;-73
2022/06/19 19:35:36;;;;;;;4.95;1.90;;;;;;;27.48;33.23;99537.38;7668949;32;38448;-72
2022/06/19 19:39:52;;;;;;;4.70;1.75;;;;;;;27.27;34.25;99538.81;7670688;32;37021;-73
2022/06/19 19:44:08;;;;;;;4.87;1.90;;;;;;;27.10;34.71;99540.31;7684558;32;37346;-73
2022/06/19 19:48:25;;;;;;;4.05;2.20;;;;;;;26.87;35.19;99548.97;7683634;32;39954;-73
2022/06/19 19:52:46;;;;;;;7.20;1.62;;;;;;;26.92;34.44;99536.59;7707277;32;37646;-73
2022/06/19 19:57:03;;;;;;;2.85;1.62;;;;;;;26.69;34.50;99536.81;7697660;32;37129;-74
2022/06/19 20:01:19;;;;;;;3.83;1.73;;;;;;;26.58;34.27;99547.91;7710920;32;40882;-72
2022/06/19 20:14:48;;;;;;;5.20;2.00;;;;;;;26.15;34.11;99539.13;7710220;32;38014;-74
2022/06/19 20:19:06;;;;;;;2.55;1.65;;;;;;;26.08;34.84;99559.41;7710225;32;40208;-73
2022/06/19 20:23:32;;;;;;;3.12;1.75;;;;;;;26.00;34.91;99550.13;7709613;32;39892;-74
2022/06/19 20:28:12;;;;;;;5.40;1.90;;;;;;;25.76;35.76;99537.44;7710021;32;38651;-74
2022/06/19 20:32:33;;;;;;;3.15;1.35;;;;;;;25.74;34.76;99539.81;7695924;32;37908;-74
2022/06/19 20:36:50;;;;;;;2.80;1.50;;;;;;;25.77;34.50;99539.06;7709829;32;39297;-74
2022/06/19 20:45:45;;;;;;;3.28;1.50;;;;;;;25.36;35.44;99552.09;7709671;32;38988;-74
2022/06/19 20:50:16;;;;;;;3.97;1.87;;;;;;;25.11;36.02;99542.16;7709872;32;37127;-73
2022/06/19 20:54:32;;;;;;;4.95;1.75;;;;;;;25.07;35.22;99538.50;7696395;32;37156;-73
2022/06/19 20:58:48;;;;;;;2.85;1.65;;;;;;;24.90;35.90;99539.03;7708836;32;40790;-74
2022/06/19 21:03:05;;;;;;;3.03;1.65;;;;;;;24.87;36.09;99542.56;7709286;32;37899;-73
2022/06/19 21:07:27;;;;;;;2.65;1.90;;;;;;;24.82;36.82;99540.09;7709379;32;37124;-73